sensor_id;sensor_type;location;lat;lon;timestamp;temperature;humidity
20479;DHT22;10398;52.490;13.434;2022-08-07T00:00:20;19.60;89.10
20479;DHT22;10398;52.490;13.434;2022-08-07T00:02:45;19.50;89.10
20479;DHT22;10398;52.490;13.434;2022-08-07T00:05:11;19.50;89.00
20479;DHT22;10398;52.490;13.434;2022-08-07T00:07:37;19.50;89.20
20479;DHT22;10398;52.490;13.434;2022-08-07T00:10:03;19.50;89.20
20479;DHT22;10398;52.490;13.434;2022-08-07T00:12:28;19.50;89.70
20479;DHT22;10398;52.490;13.434;2022-08-07T00:14:54;19.50;89.90
20479;DHT22;10398;52.490;13.434;2022-08-07T00:17:20;19.40;90.00
20479;DHT22;10398;52.490;13.434;2022-08-07T00:19:45;19.30;90.10
20479;DHT22;10398;52.490;13.434;2022-08-07T00:22:11;19.20;90.50
20479;DHT22;10398;52.490;13.434;2022-08-07T00:24:37;19.20;90.60
20479;DHT22;10398;52.490;13.434;2022-08-07T00:27:03;19.10;90.90
20479;DHT22;10398;52.490;13.434;2022-08-07T00:29:28;19.10;91.00
20479;DHT22;10398;52.490;13.434;2022-08-07T00:31:54;19.00;91.30
20479;DHT22;10398;52.490;13.434;2022-08-07T00:34:27;19.10;91.30
20479;DHT22;10398;52.490;13.434;2022-08-07T00:36:53;19.00;91.30
20479;DHT22;10398;52.490;13.434;2022-08-07T00:39:18;19.00;91.50
20479;DHT22;10398;52.490;13.434;2022-08-07T00:42:02;19.00;91.70
20479;DHT22;10398;52.490;13.434;2022-08-07T00:44:28;19.00;91.70
20479;DHT22;10398;52.490;13.434;2022-08-07T00:46:54;19.00;91.90
20479;DHT22;10398;52.490;13.434;2022-08-07T00:49:19;19.00;91.60
20479;DHT22;10398;52.490;13.434;2022-08-07T00:51:45;19.10;91.80
20479;DHT22;10398;52.490;13.434;2022-08-07T00:54:11;19.20;91.50
20479;DHT22;10398;52.490;13.434;2022-08-07T00:56:40;19.20;90.80
20479;DHT22;10398;52.490;13.434;2022-08-07T00:59:06;19.30;90.80
20479;DHT22;10398;52.490;13.434;2022-08-07T01:01:32;19.20;90.60
20479;DHT22;10398;52.490;13.434;2022-08-07T01:03:59;19.10;91.00
20479;DHT22;10398;52.490;13.434;2022-08-07T01:06:26;19.00;91.10
20479;DHT22;10398;52.490;13.434;2022-08-07T01:08:52;19.00;91.40
20479;DHT22;10398;52.490;13.434;2022-08-07T01:11:18;18.90;91.60
20479;DHT22;10398;52.490;13.434;2022-08-07T01:13:43;18.90;91.70
20479;DHT22;10398;52.490;13.434;2022-08-07T01:16:09;19.00;91.60
20479;DHT22;10398;52.490;13.434;2022-08-07T01:18:36;19.00;91.40
20479;DHT22;10398;52.490;13.434;2022-08-07T01:23:38;18.90;92.00
20479;DHT22;10398;52.490;13.434;2022-08-07T01:26:05;18.80;91.70
20479;DHT22;10398;52.490;13.434;2022-08-07T01:28:32;18.80;92.20
20479;DHT22;10398;52.490;13.434;2022-08-07T01:31:00;18.60;92.60
20479;DHT22;10398;52.490;13.434;2022-08-07T01:33:26;18.60;92.70
20479;DHT22;10398;52.490;13.434;2022-08-07T01:35:52;18.50;92.80
20479;DHT22;10398;52.490;13.434;2022-08-07T01:38:19;18.50;93.00
20479;DHT22;10398;52.490;13.434;2022-08-07T01:40:47;18.50;93.00
20479;DHT22;10398;52.490;13.434;2022-08-07T01:43:13;18.40;93.00
20479;DHT22;10398;52.490;13.434;2022-08-07T01:45:40;18.60;92.70
20479;DHT22;10398;52.490;13.434;2022-08-07T01:48:06;18.50;92.60
20479;DHT22;10398;52.490;13.434;2022-08-07T01:50:35;18.50;93.00
20479;DHT22;10398;52.490;13.434;2022-08-07T01:53:01;18.40;93.00
20479;DHT22;10398;52.490;13.434;2022-08-07T01:55:34;18.40;93.00
20479;DHT22;10398;52.490;13.434;2022-08-07T01:58:01;18.40;93.20
20479;DHT22;10398;52.490;13.434;2022-08-07T02:00:31;18.40;93.40
20479;DHT22;10398;52.490;13.434;2022-08-07T02:03:01;18.30;93.40
20479;DHT22;10398;52.490;13.434;2022-08-07T02:05:33;18.20;93.70
20479;DHT22;10398;52.490;13.434;2022-08-07T02:08:05;18.30;93.80
20479;DHT22;10398;52.490;13.434;2022-08-07T02:10:32;18.30;93.90
20479;DHT22;10398;52.490;13.434;2022-08-07T02:13:00;18.40;93.80
20479;DHT22;10398;52.490;13.434;2022-08-07T02:15:28;18.30;93.90
20479;DHT22;10398;52.490;13.434;2022-08-07T02:17:55;18.30;94.10
20479;DHT22;10398;52.490;13.434;2022-08-07T02:20:22;18.20;94.10
20479;DHT22;10398;52.490;13.434;2022-08-07T02:22:49;18.30;94.00
20479;DHT22;10398;52.490;13.434;2022-08-07T02:25:17;18.20;94.40
20479;DHT22;10398;52.490;13.434;2022-08-07T02:27:45;18.20;94.50
20479;DHT22;10398;52.490;13.434;2022-08-07T02:30:12;18.20;94.20
20479;DHT22;10398;52.490;13.434;2022-08-07T02:32:38;18.20;94.00
20479;DHT22;10398;52.490;13.434;2022-08-07T02:35:05;18.20;94.20
20479;DHT22;10398;52.490;13.434;2022-08-07T02:37:34;18.20;94.40
20479;DHT22;10398;52.490;13.434;2022-08-07T02:40:03;18.20;94.50
20479;DHT22;10398;52.490;13.434;2022-08-07T02:42:31;18.10;94.50
20479;DHT22;10398;52.490;13.434;2022-08-07T02:44:59;18.10;94.60
20479;DHT22;10398;52.490;13.434;2022-08-07T02:47:26;18.10;94.70
20479;DHT22;10398;52.490;13.434;2022-08-07T02:49:52;18.00;94.70
20479;DHT22;10398;52.490;13.434;2022-08-07T02:52:33;18.00;94.80
20479;DHT22;10398;52.490;13.434;2022-08-07T02:55:06;18.00;94.70
20479;DHT22;10398;52.490;13.434;2022-08-07T02:57:35;18.10;94.60
20479;DHT22;10398;52.490;13.434;2022-08-07T03:00:03;18.10;94.80
20479;DHT22;10398;52.490;13.434;2022-08-07T03:02:29;18.10;94.80
20479;DHT22;10398;52.490;13.434;2022-08-07T03:04:55;18.00;94.80
20479;DHT22;10398;52.490;13.434;2022-08-07T03:07:23;18.10;94.60
20479;DHT22;10398;52.490;13.434;2022-08-07T03:09:49;18.10;94.30
20479;DHT22;10398;52.490;13.434;2022-08-07T03:12:15;18.10;94.20
20479;DHT22;10398;52.490;13.434;2022-08-07T03:14:42;18.10;94.40
20479;DHT22;10398;52.490;13.434;2022-08-07T03:17:08;18.10;94.40
20479;DHT22;10398;52.490;13.434;2022-08-07T03:19:34;18.10;94.60
20479;DHT22;10398;52.490;13.434;2022-08-07T03:22:05;18.10;94.70
20479;DHT22;10398;52.490;13.434;2022-08-07T03:24:31;18.00;94.50
20479;DHT22;10398;52.490;13.434;2022-08-07T03:27:01;18.00;94.50
20479;DHT22;10398;52.490;13.434;2022-08-07T03:29:41;18.00;94.60
20479;DHT22;10398;52.490;13.434;2022-08-07T03:32:10;18.00;94.50
20479;DHT22;10398;52.490;13.434;2022-08-07T03:34:37;18.00;94.80
20479;DHT22;10398;52.490;13.434;2022-08-07T03:37:04;18.00;94.60
20479;DHT22;10398;52.490;13.434;2022-08-07T03:39:32;18.00;94.70
20479;DHT22;10398;52.490;13.434;2022-08-07T03:41:58;18.00;94.50
20479;DHT22;10398;52.490;13.434;2022-08-07T03:44:25;18.00;94.50
20479;DHT22;10398;52.490;13.434;2022-08-07T03:46:51;17.90;94.50
20479;DHT22;10398;52.490;13.434;2022-08-07T03:49:17;17.80;94.80
20479;DHT22;10398;52.490;13.434;2022-08-07T03:51:43;17.80;94.90
20479;DHT22;10398;52.490;13.434;2022-08-07T03:54:09;17.80;95.00
20479;DHT22;10398;52.490;13.434;2022-08-07T03:56:37;17.80;95.10
20479;DHT22;10398;52.490;13.434;2022-08-07T03:59:04;17.80;95.00
20479;DHT22;10398;52.490;13.434;2022-08-07T04:01:31;17.80;95.00
20479;DHT22;10398;52.490;13.434;2022-08-07T04:03:58;17.80;95.00
20479;DHT22;10398;52.490;13.434;2022-08-07T04:06:24;17.90;95.20
20479;DHT22;10398;52.490;13.434;2022-08-07T04:08:50;17.80;95.20
20479;DHT22;10398;52.490;13.434;2022-08-07T04:11:16;17.80;95.50
20479;DHT22;10398;52.490;13.434;2022-08-07T04:13:44;17.70;95.50
20479;DHT22;10398;52.490;13.434;2022-08-07T04:16:11;17.70;95.50
20479;DHT22;10398;52.490;13.434;2022-08-07T04:18:37;17.80;95.40
20479;DHT22;10398;52.490;13.434;2022-08-07T04:21:03;17.80;95.00
20479;DHT22;10398;52.490;13.434;2022-08-07T04:23:30;17.80;95.00
20479;DHT22;10398;52.490;13.434;2022-08-07T04:25:57;17.90;95.40
20479;DHT22;10398;52.490;13.434;2022-08-07T04:28:23;17.80;95.30
20479;DHT22;10398;52.490;13.434;2022-08-07T04:30:49;17.90;95.40
20479;DHT22;10398;52.490;13.434;2022-08-07T04:33:16;17.80;95.50
20479;DHT22;10398;52.490;13.434;2022-08-07T04:35:45;17.80;95.70
20479;DHT22;10398;52.490;13.434;2022-08-07T04:38:12;17.80;95.70
20479;DHT22;10398;52.490;13.434;2022-08-07T04:40:41;17.90;95.40
20479;DHT22;10398;52.490;13.434;2022-08-07T04:43:07;17.90;95.50
20479;DHT22;10398;52.490;13.434;2022-08-07T04:45:47;17.90;95.60
20479;DHT22;10398;52.490;13.434;2022-08-07T04:51:23;17.90;95.50
20479;DHT22;10398;52.490;13.434;2022-08-07T04:54:00;18.00;95.60
20479;DHT22;10398;52.490;13.434;2022-08-07T04:59:15;18.10;95.30
20479;DHT22;10398;52.490;13.434;2022-08-07T05:02:38;18.00;95.00
20479;DHT22;10398;52.490;13.434;2022-08-07T05:05:11;17.90;94.60
20479;DHT22;10398;52.490;13.434;2022-08-07T05:07:46;17.90;94.60
20479;DHT22;10398;52.490;13.434;2022-08-07T05:13:08;17.90;95.20
20479;DHT22;10398;52.490;13.434;2022-08-07T05:15:41;17.90;95.00
20479;DHT22;10398;52.490;13.434;2022-08-07T05:18:18;17.90;95.00
20479;DHT22;10398;52.490;13.434;2022-08-07T05:20:47;17.90;94.80
20479;DHT22;10398;52.490;13.434;2022-08-07T05:23:29;17.90;94.90
20479;DHT22;10398;52.490;13.434;2022-08-07T05:25:55;17.90;95.20
20479;DHT22;10398;52.490;13.434;2022-08-07T05:28:22;17.80;95.20
20479;DHT22;10398;52.490;13.434;2022-08-07T05:30:51;17.70;95.40
20479;DHT22;10398;52.490;13.434;2022-08-07T05:33:17;17.70;95.60
20479;DHT22;10398;52.490;13.434;2022-08-07T05:35:44;17.70;95.60
20479;DHT22;10398;52.490;13.434;2022-08-07T05:38:10;17.60;95.30
20479;DHT22;10398;52.490;13.434;2022-08-07T05:40:37;17.60;95.60
20479;DHT22;10398;52.490;13.434;2022-08-07T05:43:04;17.60;95.50
20479;DHT22;10398;52.490;13.434;2022-08-07T05:45:29;17.50;95.00
20479;DHT22;10398;52.490;13.434;2022-08-07T05:47:56;17.50;95.20
20479;DHT22;10398;52.490;13.434;2022-08-07T05:50:22;17.40;95.10
20479;DHT22;10398;52.490;13.434;2022-08-07T05:52:48;17.50;95.10
20479;DHT22;10398;52.490;13.434;2022-08-07T05:55:14;17.60;95.10
20479;DHT22;10398;52.490;13.434;2022-08-07T05:57:40;17.60;95.20
20479;DHT22;10398;52.490;13.434;2022-08-07T06:00:08;17.70;95.30
20479;DHT22;10398;52.490;13.434;2022-08-07T06:02:35;17.70;95.00
20479;DHT22;10398;52.490;13.434;2022-08-07T06:05:07;17.80;94.90
20479;DHT22;10398;52.490;13.434;2022-08-07T06:07:33;17.80;94.10
20479;DHT22;10398;52.490;13.434;2022-08-07T06:10:00;17.80;94.00
20479;DHT22;10398;52.490;13.434;2022-08-07T06:12:27;17.80;94.10
20479;DHT22;10398;52.490;13.434;2022-08-07T06:14:53;17.80;94.00
20479;DHT22;10398;52.490;13.434;2022-08-07T06:17:19;17.80;94.20
20479;DHT22;10398;52.490;13.434;2022-08-07T06:19:46;17.90;94.30
20479;DHT22;10398;52.490;13.434;2022-08-07T06:22:12;17.90;94.00
20479;DHT22;10398;52.490;13.434;2022-08-07T06:24:38;17.90;93.80
20479;DHT22;10398;52.490;13.434;2022-08-07T06:27:04;18.10;94.20
20479;DHT22;10398;52.490;13.434;2022-08-07T06:29:30;18.20;94.30
20479;DHT22;10398;52.490;13.434;2022-08-07T06:31:56;18.30;93.60
20479;DHT22;10398;52.490;13.434;2022-08-07T06:34:26;18.40;93.40
20479;DHT22;10398;52.490;13.434;2022-08-07T06:36:52;18.40;93.00
20479;DHT22;10398;52.490;13.434;2022-08-07T06:39:22;18.50;93.10
20479;DHT22;10398;52.490;13.434;2022-08-07T06:42:03;18.40;92.60
20479;DHT22;10398;52.490;13.434;2022-08-07T06:44:30;18.40;92.50
20479;DHT22;10398;52.490;13.434;2022-08-07T06:46:56;18.60;93.10
20479;DHT22;10398;52.490;13.434;2022-08-07T06:49:22;18.70;92.20
20479;DHT22;10398;52.490;13.434;2022-08-07T06:51:48;18.60;92.00
20479;DHT22;10398;52.490;13.434;2022-08-07T06:54:16;18.60;91.90
20479;DHT22;10398;52.490;13.434;2022-08-07T06:56:42;18.60;92.10
20479;DHT22;10398;52.490;13.434;2022-08-07T06:59:14;18.70;91.80
20479;DHT22;10398;52.490;13.434;2022-08-07T07:01:41;18.80;91.80
20479;DHT22;10398;52.490;13.434;2022-08-07T07:04:07;18.90;91.60
20479;DHT22;10398;52.490;13.434;2022-08-07T07:06:33;19.00;92.00
20479;DHT22;10398;52.490;13.434;2022-08-07T07:09:16;19.10;91.00
20479;DHT22;10398;52.490;13.434;2022-08-07T07:11:53;19.10;91.00
20479;DHT22;10398;52.490;13.434;2022-08-07T07:14:23;19.20;91.50
20479;DHT22;10398;52.490;13.434;2022-08-07T07:16:52;19.30;91.10
20479;DHT22;10398;52.490;13.434;2022-08-07T07:19:28;19.50;90.40
20479;DHT22;10398;52.490;13.434;2022-08-07T07:21:55;19.30;89.80
20479;DHT22;10398;52.490;13.434;2022-08-07T07:24:20;19.40;90.40
20479;DHT22;10398;52.490;13.434;2022-08-07T07:26:50;19.50;90.30
20479;DHT22;10398;52.490;13.434;2022-08-07T07:29:22;19.60;90.60
20479;DHT22;10398;52.490;13.434;2022-08-07T07:31:51;19.70;89.40
20479;DHT22;10398;52.490;13.434;2022-08-07T07:34:23;19.70;88.20
20479;DHT22;10398;52.490;13.434;2022-08-07T07:36:52;19.70;87.30
20479;DHT22;10398;52.490;13.434;2022-08-07T07:39:20;19.70;88.00
20479;DHT22;10398;52.490;13.434;2022-08-07T07:41:48;19.80;87.80
20479;DHT22;10398;52.490;13.434;2022-08-07T07:44:16;19.90;86.80
20479;DHT22;10398;52.490;13.434;2022-08-07T07:46:43;19.90;89.00
20479;DHT22;10398;52.490;13.434;2022-08-07T07:49:10;19.90;86.00
20479;DHT22;10398;52.490;13.434;2022-08-07T07:51:40;19.90;85.70
20479;DHT22;10398;52.490;13.434;2022-08-07T07:54:08;19.90;85.30
20479;DHT22;10398;52.490;13.434;2022-08-07T07:56:37;20.00;86.60
20479;DHT22;10398;52.490;13.434;2022-08-07T07:59:04;20.00;86.20
20479;DHT22;10398;52.490;13.434;2022-08-07T08:01:31;20.00;85.80
20479;DHT22;10398;52.490;13.434;2022-08-07T08:04:01;20.00;84.50
20479;DHT22;10398;52.490;13.434;2022-08-07T08:06:29;20.10;85.20
20479;DHT22;10398;52.490;13.434;2022-08-07T08:08:56;20.10;84.70
20479;DHT22;10398;52.490;13.434;2022-08-07T08:11:23;20.10;83.40
20479;DHT22;10398;52.490;13.434;2022-08-07T08:13:49;20.20;84.30
20479;DHT22;10398;52.490;13.434;2022-08-07T08:16:18;20.40;85.30
20479;DHT22;10398;52.490;13.434;2022-08-07T08:18:47;20.40;83.80
20479;DHT22;10398;52.490;13.434;2022-08-07T08:21:14;20.50;82.60
20479;DHT22;10398;52.490;13.434;2022-08-07T08:24:01;20.60;82.70
20479;DHT22;10398;52.490;13.434;2022-08-07T08:26:46;20.60;83.20
20479;DHT22;10398;52.490;13.434;2022-08-07T08:29:32;20.70;82.10
20479;DHT22;10398;52.490;13.434;2022-08-07T08:32:02;20.70;82.70
20479;DHT22;10398;52.490;13.434;2022-08-07T08:34:30;20.90;84.40
20479;DHT22;10398;52.490;13.434;2022-08-07T08:36:57;21.00;82.20
20479;DHT22;10398;52.490;13.434;2022-08-07T08:39:25;21.10;80.30
20479;DHT22;10398;52.490;13.434;2022-08-07T08:42:06;21.00;79.70
20479;DHT22;10398;52.490;13.434;2022-08-07T08:44:40;21.10;81.20
20479;DHT22;10398;52.490;13.434;2022-08-07T08:47:20;21.20;82.80
20479;DHT22;10398;52.490;13.434;2022-08-07T08:50:16;21.40;81.70
20479;DHT22;10398;52.490;13.434;2022-08-07T08:55:46;21.70;81.50
20479;DHT22;10398;52.490;13.434;2022-08-07T09:00:59;21.80;77.90
20479;DHT22;10398;52.490;13.434;2022-08-07T09:03:38;21.90;76.90
20479;DHT22;10398;52.490;13.434;2022-08-07T09:06:15;22.00;79.60
20479;DHT22;10398;52.490;13.434;2022-08-07T09:08:57;22.10;77.50
20479;DHT22;10398;52.490;13.434;2022-08-07T09:11:38;22.20;78.90
20479;DHT22;10398;52.490;13.434;2022-08-07T09:14:13;22.40;81.10
20479;DHT22;10398;52.490;13.434;2022-08-07T09:19:47;22.70;79.70
20479;DHT22;10398;52.490;13.434;2022-08-07T09:25:35;22.70;76.00
20479;DHT22;10398;52.490;13.434;2022-08-07T09:28:10;22.60;75.80
20479;DHT22;10398;52.490;13.434;2022-08-07T09:31:07;22.50;76.70
20479;DHT22;10398;52.490;13.434;2022-08-07T09:42:09;22.50;76.60
20479;DHT22;10398;52.490;13.434;2022-08-07T09:44:48;22.40;75.20
20479;DHT22;10398;52.490;13.434;2022-08-07T09:52:51;22.50;74.40
20479;DHT22;10398;52.490;13.434;2022-08-07T10:12:49;23.00;71.20
20479;DHT22;10398;52.490;13.434;2022-08-07T10:18:39;22.90;74.50
20479;DHT22;10398;52.490;13.434;2022-08-07T10:32:31;22.90;76.60
20479;DHT22;10398;52.490;13.434;2022-08-07T10:40:52;23.50;74.70
20479;DHT22;10398;52.490;13.434;2022-08-07T10:43:28;23.60;74.30
20479;DHT22;10398;52.490;13.434;2022-08-07T10:45:57;23.70;71.70
20479;DHT22;10398;52.490;13.434;2022-08-07T10:51:04;23.80;67.20
20479;DHT22;10398;52.490;13.434;2022-08-07T10:53:49;23.60;68.50
20479;DHT22;10398;52.490;13.434;2022-08-07T10:56:27;23.50;68.40
20479;DHT22;10398;52.490;13.434;2022-08-07T11:01:58;23.20;68.30
20479;DHT22;10398;52.490;13.434;2022-08-07T11:10:03;23.20;68.30
20479;DHT22;10398;52.490;13.434;2022-08-07T11:12:41;23.20;67.80
20479;DHT22;10398;52.490;13.434;2022-08-07T11:15:16;23.30;67.60
20479;DHT22;10398;52.490;13.434;2022-08-07T11:26:07;23.90;67.20
20479;DHT22;10398;52.490;13.434;2022-08-07T11:31:14;24.20;67.00
20479;DHT22;10398;52.490;13.434;2022-08-07T11:33:53;24.30;67.80
20479;DHT22;10398;52.490;13.434;2022-08-07T11:36:33;24.40;67.70
20479;DHT22;10398;52.490;13.434;2022-08-07T11:42:17;24.80;67.80
20479;DHT22;10398;52.490;13.434;2022-08-07T11:45:07;24.90;66.50
20479;DHT22;10398;52.490;13.434;2022-08-07T11:48:06;25.10;65.90
20479;DHT22;10398;52.490;13.434;2022-08-07T11:50:46;25.20;65.30
20479;DHT22;10398;52.490;13.434;2022-08-07T11:53:33;25.30;64.40
20479;DHT22;10398;52.490;13.434;2022-08-07T11:56:16;25.40;64.60
20479;DHT22;10398;52.490;13.434;2022-08-07T12:04:11;25.50;64.30
20479;DHT22;10398;52.490;13.434;2022-08-07T12:06:46;25.50;63.90
20479;DHT22;10398;52.490;13.434;2022-08-07T12:09:18;25.60;62.80
20479;DHT22;10398;52.490;13.434;2022-08-07T12:14:29;25.70;63.40
20479;DHT22;10398;52.490;13.434;2022-08-07T12:17:02;25.60;63.40
20479;DHT22;10398;52.490;13.434;2022-08-07T12:25:09;25.50;62.40
20479;DHT22;10398;52.490;13.434;2022-08-07T12:27:59;25.40;61.70
20479;DHT22;10398;52.490;13.434;2022-08-07T12:30:33;25.40;63.20
20479;DHT22;10398;52.490;13.434;2022-08-07T12:33:09;25.30;63.60
20479;DHT22;10398;52.490;13.434;2022-08-07T12:35:38;25.20;63.20
20479;DHT22;10398;52.490;13.434;2022-08-07T12:38:06;25.10;61.40
20479;DHT22;10398;52.490;13.434;2022-08-07T12:40:33;25.10;61.60
20479;DHT22;10398;52.490;13.434;2022-08-07T12:43:05;24.90;60.30
20479;DHT22;10398;52.490;13.434;2022-08-07T12:45:53;24.70;60.30
20479;DHT22;10398;52.490;13.434;2022-08-07T12:51:04;24.70;62.10
20479;DHT22;10398;52.490;13.434;2022-08-07T12:56:35;24.90;62.10
20479;DHT22;10398;52.490;13.434;2022-08-07T12:59:04;25.10;62.20
20479;DHT22;10398;52.490;13.434;2022-08-07T13:04:44;25.30;61.40
20479;DHT22;10398;52.490;13.434;2022-08-07T13:27:14;25.60;59.70
20479;DHT22;10398;52.490;13.434;2022-08-07T13:29:35;25.50;59.60
20479;DHT22;10398;52.490;13.434;2022-08-07T13:32:54;25.50;59.00
20479;DHT22;10398;52.490;13.434;2022-08-07T13:35:04;25.60;59.70
20479;DHT22;10398;52.490;13.434;2022-08-07T13:37:51;25.80;59.70
20479;DHT22;10398;52.490;13.434;2022-08-07T13:42:55;26.10;58.10
20479;DHT22;10398;52.490;13.434;2022-08-07T13:45:23;26.10;58.60
20479;DHT22;10398;52.490;13.434;2022-08-07T13:47:54;26.20;59.40
20479;DHT22;10398;52.490;13.434;2022-08-07T13:50:23;26.30;57.90
20479;DHT22;10398;52.490;13.434;2022-08-07T13:52:50;26.40;57.90
20479;DHT22;10398;52.490;13.434;2022-08-07T13:55:19;26.40;57.50
20479;DHT22;10398;52.490;13.434;2022-08-07T13:57:49;26.50;58.50
20479;DHT22;10398;52.490;13.434;2022-08-07T14:00:17;26.60;58.10
20479;DHT22;10398;52.490;13.434;2022-08-07T14:02:45;26.80;58.40
20479;DHT22;10398;52.490;13.434;2022-08-07T14:05:13;26.90;57.70
20479;DHT22;10398;52.490;13.434;2022-08-07T14:07:46;26.90;56.90
20479;DHT22;10398;52.490;13.434;2022-08-07T14:10:13;27.00;56.70
20479;DHT22;10398;52.490;13.434;2022-08-07T14:12:50;27.00;56.70
20479;DHT22;10398;52.490;13.434;2022-08-07T14:18:05;27.10;57.90
20479;DHT22;10398;52.490;13.434;2022-08-07T14:20:31;27.10;57.70
20479;DHT22;10398;52.490;13.434;2022-08-07T14:23:15;27.20;57.20
20479;DHT22;10398;52.490;13.434;2022-08-07T14:25:43;27.20;55.40
20479;DHT22;10398;52.490;13.434;2022-08-07T14:28:13;27.10;56.20
20479;DHT22;10398;52.490;13.434;2022-08-07T14:30:45;27.10;56.40
20479;DHT22;10398;52.490;13.434;2022-08-07T14:33:11;27.20;56.50
20479;DHT22;10398;52.490;13.434;2022-08-07T14:35:39;27.20;56.70
20479;DHT22;10398;52.490;13.434;2022-08-07T14:38:07;27.20;57.20
20479;DHT22;10398;52.490;13.434;2022-08-07T14:40:34;27.30;57.30
20479;DHT22;10398;52.490;13.434;2022-08-07T14:45:49;27.40;57.70
20479;DHT22;10398;52.490;13.434;2022-08-07T14:48:18;27.40;58.50
20479;DHT22;10398;52.490;13.434;2022-08-07T14:50:48;27.40;57.90
20479;DHT22;10398;52.490;13.434;2022-08-07T14:53:15;27.40;58.20
20479;DHT22;10398;52.490;13.434;2022-08-07T14:55:41;27.40;56.60
20479;DHT22;10398;52.490;13.434;2022-08-07T14:58:10;27.50;56.30
20479;DHT22;10398;52.490;13.434;2022-08-07T15:00:39;27.50;56.80
20479;DHT22;10398;52.490;13.434;2022-08-07T15:03:07;27.50;57.10
20479;DHT22;10398;52.490;13.434;2022-08-07T15:05:34;27.50;57.00
20479;DHT22;10398;52.490;13.434;2022-08-07T15:08:03;27.50;57.60
20479;DHT22;10398;52.490;13.434;2022-08-07T15:10:30;27.50;56.90
20479;DHT22;10398;52.490;13.434;2022-08-07T15:13:01;27.50;57.00
20479;DHT22;10398;52.490;13.434;2022-08-07T15:15:43;27.50;56.30
20479;DHT22;10398;52.490;13.434;2022-08-07T15:18:13;27.50;57.10
20479;DHT22;10398;52.490;13.434;2022-08-07T15:20:40;27.50;56.60
20479;DHT22;10398;52.490;13.434;2022-08-07T15:23:11;27.60;56.40
20479;DHT22;10398;52.490;13.434;2022-08-07T15:25:45;27.50;55.40
20479;DHT22;10398;52.490;13.434;2022-08-07T15:28:15;27.40;55.60
20479;DHT22;10398;52.490;13.434;2022-08-07T15:30:44;27.40;56.30
20479;DHT22;10398;52.490;13.434;2022-08-07T15:33:16;27.30;56.30
20479;DHT22;10398;52.490;13.434;2022-08-07T15:35:51;27.30;55.90
20479;DHT22;10398;52.490;13.434;2022-08-07T15:38:19;27.30;55.60
20479;DHT22;10398;52.490;13.434;2022-08-07T15:40:49;27.40;55.60
20479;DHT22;10398;52.490;13.434;2022-08-07T15:43:18;27.40;55.90
20479;DHT22;10398;52.490;13.434;2022-08-07T15:45:46;27.40;55.40
20479;DHT22;10398;52.490;13.434;2022-08-07T15:48:15;27.40;57.00
20479;DHT22;10398;52.490;13.434;2022-08-07T15:50:45;27.30;56.70
20479;DHT22;10398;52.490;13.434;2022-08-07T15:53:22;27.10;57.30
20479;DHT22;10398;52.490;13.434;2022-08-07T15:55:57;27.00;56.70
20479;DHT22;10398;52.490;13.434;2022-08-07T16:01:16;26.80;59.10
20479;DHT22;10398;52.490;13.434;2022-08-07T16:03:44;26.70;57.20
20479;DHT22;10398;52.490;13.434;2022-08-07T16:06:13;26.60;57.20
20479;DHT22;10398;52.490;13.434;2022-08-07T16:08:41;26.60;56.50
20479;DHT22;10398;52.490;13.434;2022-08-07T16:11:33;26.60;56.40
20479;DHT22;10398;52.490;13.434;2022-08-07T16:14:11;26.50;56.10
20479;DHT22;10398;52.490;13.434;2022-08-07T16:17:16;26.50;56.40
20479;DHT22;10398;52.490;13.434;2022-08-07T16:25:38;25.90;55.60
20479;DHT22;10398;52.490;13.434;2022-08-07T16:30:53;25.50;55.70
20479;DHT22;10398;52.490;13.434;2022-08-07T16:33:23;25.20;55.50
20479;DHT22;10398;52.490;13.434;2022-08-07T16:44:59;25.00;57.20
20479;DHT22;10398;52.490;13.434;2022-08-07T16:47:37;24.90;57.30
20479;DHT22;10398;52.490;13.434;2022-08-07T16:50:32;24.80;58.20
20479;DHT22;10398;52.490;13.434;2022-08-07T16:59:45;24.60;58.00
20479;DHT22;10398;52.490;13.434;2022-08-07T17:08:01;24.40;57.70
20479;DHT22;10398;52.490;13.434;2022-08-07T17:10:49;24.40;58.50
20479;DHT22;10398;52.490;13.434;2022-08-07T17:16:13;24.50;58.40
20479;DHT22;10398;52.490;13.434;2022-08-07T17:18:47;24.60;58.90
20479;DHT22;10398;52.490;13.434;2022-08-07T17:21:17;24.60;59.10
20479;DHT22;10398;52.490;13.434;2022-08-07T17:24:15;24.60;59.00
20479;DHT22;10398;52.490;13.434;2022-08-07T17:30:03;24.70;61.60
20479;DHT22;10398;52.490;13.434;2022-08-07T17:40:48;24.80;60.00
20479;DHT22;10398;52.490;13.434;2022-08-07T17:43:32;24.70;59.60
20479;DHT22;10398;52.490;13.434;2022-08-07T17:46:10;24.60;60.00
20479;DHT22;10398;52.490;13.434;2022-08-07T17:51:19;24.50;60.10
20479;DHT22;10398;52.490;13.434;2022-08-07T17:56:23;24.50;61.20
20479;DHT22;10398;52.490;13.434;2022-08-07T18:01:41;24.40;59.80
20479;DHT22;10398;52.490;13.434;2022-08-07T18:04:30;24.40;60.70
20479;DHT22;10398;52.490;13.434;2022-08-07T18:09:37;24.30;62.30
20479;DHT22;10398;52.490;13.434;2022-08-07T18:12:13;24.30;61.60
20479;DHT22;10398;52.490;13.434;2022-08-07T18:15:10;24.30;61.40
20479;DHT22;10398;52.490;13.434;2022-08-07T18:17:49;24.20;61.60
20479;DHT22;10398;52.490;13.434;2022-08-07T18:20:24;24.20;62.20
20479;DHT22;10398;52.490;13.434;2022-08-07T18:23:01;24.20;62.60
20479;DHT22;10398;52.490;13.434;2022-08-07T18:25:31;24.20;62.50
20479;DHT22;10398;52.490;13.434;2022-08-07T18:30:50;24.20;62.60
20479;DHT22;10398;52.490;13.434;2022-08-07T18:34:05;24.20;61.90
20479;DHT22;10398;52.490;13.434;2022-08-07T18:42:20;24.00;61.80
20479;DHT22;10398;52.490;13.434;2022-08-07T18:45:10;24.00;62.80
20479;DHT22;10398;52.490;13.434;2022-08-07T18:58:55;23.90;63.30
20479;DHT22;10398;52.490;13.434;2022-08-07T19:01:41;23.80;64.10
20479;DHT22;10398;52.490;13.434;2022-08-07T19:04:12;23.70;64.40
20479;DHT22;10398;52.490;13.434;2022-08-07T19:06:53;23.70;64.20
20479;DHT22;10398;52.490;13.434;2022-08-07T19:12:13;23.70;64.10
20479;DHT22;10398;52.490;13.434;2022-08-07T19:17:51;23.50;64.80
20479;DHT22;10398;52.490;13.434;2022-08-07T19:20:26;23.50;64.80
20479;DHT22;10398;52.490;13.434;2022-08-07T19:23:02;23.40;64.90
20479;DHT22;10398;52.490;13.434;2022-08-07T19:25:34;23.30;65.30
20479;DHT22;10398;52.490;13.434;2022-08-07T19:28:03;23.20;65.20
20479;DHT22;10398;52.490;13.434;2022-08-07T19:30:32;23.20;66.40
20479;DHT22;10398;52.490;13.434;2022-08-07T19:33:01;23.10;66.00